Time;durP1;ratioP1;P1;durP2;ratioP2;P2;SDS_P1;SDS_P2;PMS_P1;PMS_P2;Temp;Humidity;BMP_temperature;BMP_pressure;BME280_temperature;BME280_humidity;BME280_pressure;Samples;Min_cycle;Max_cycle;Signal;HPM_P1;HPM_P2
2023/08/10 00:02:25;;;;;;;;;;;;;;;14.12;86.82;102039.25;5022231;28;19987;-57
2023/08/10 00:04:50;;;;;;;;;;;;;;;14.18;86.99;102039.41;5025471;28;19916;-57
2023/08/10 00:07:15;;;;;;;;;;;;;;;14.21;86.94;102034.28;5022868;28;19916;-58
2023/08/10 00:09:40;;;;;;;;;;;;;;;14.25;86.99;102042.25;5023025;28;20048;-57
2023/08/10 00:12:06;;;;;;;;;;;;;;;14.25;87.30;102046.59;5020847;28;19910;-57
2023/08/10 00:14:32;;;;;;;;;;;;;;;14.25;87.34;102047.50;5019645;28;19925;-58
2023/08/10 00:16:57;;;;;;;;;;;;;;;14.26;87.36;102056.25;5022835;28;20641;-58
2023/08/10 00:19:23;;;;;;;;;;;;;;;14.25;87.66;102046.59;5023077;28;20154;-58
2023/08/10 00:21:48;;;;;;;;;;;;;;;14.28;87.91;102046.72;5023931;28;19917;-58
2023/08/10 00:24:13;;;;;;;;;;;;;;;14.31;88.02;102046.78;5022782;28;19913;-57
2023/08/10 00:26:38;;;;;;;;;;;;;;;14.31;88.16;102046.78;5023302;28;19913;-58
2023/08/10 00:29:03;;;;;;;;;;;;;;;14.30;88.21;102047.63;5021732;28;19909;-56
2023/08/10 00:31:29;;;;;;;;;;;;;;;14.34;88.08;102048.59;5022629;28;19929;-57
2023/08/10 00:33:54;;;;;;;;;;;;;;;14.36;87.48;102042.53;5021208;28;20158;-58
2023/08/10 00:36:19;;;;;;;;;;;;;;;14.31;87.69;102049.41;5021643;28;20113;-58
2023/08/10 00:38:44;;;;;;;;;;;;;;;14.32;88.37;102058.16;5021097;28;19909;-58
2023/08/10 00:41:09;;;;;;;;;;;;;;;14.33;88.76;102058.19;5019159;28;19917;-58
2023/08/10 00:43:35;;;;;;;;;;;;;;;14.35;88.58;102048.66;5021140;28;19909;-58
2023/08/10 00:46:00;;;;;;;;;;;;;;;14.35;88.34;102045.13;5020640;28;19917;-57
2023/08/10 00:48:26;;;;;;;;;;;;;;;14.32;88.45;102048.53;5022614;28;20090;-58
2023/08/10 00:50:52;;;;;;;;;;;;;;;14.25;88.69;102041.34;5023607;28;19921;-57
2023/08/10 00:53:18;;;;;;;;;;;;;;;14.20;88.54;102035.13;5021981;28;20063;-58
2023/08/10 00:55:43;;;;;;;;;;;;;;;14.17;89.17;102042.91;5023782;28;19905;-58
2023/08/10 00:58:11;;;;;;;;;;;;;;;14.13;89.12;102036.66;5023618;28;19905;-58
2023/08/10 01:00:36;;;;;;;;;;;;;;;14.07;89.46;102037.38;5023920;28;19906;-58
2023/08/10 01:03:01;;;;;;;;;;;;;;;14.04;89.66;102037.28;5023679;28;20102;-57
2023/08/10 01:05:29;;;;;;;;;;;;;;;14.03;89.75;102032.91;5023733;28;19961;-57
2023/08/10 01:08:07;;;;;;;;;;;;;;;14.04;89.90;102033.78;5022925;28;19905;-57
2023/08/10 01:10:51;;;;;;;;;;;;;;;14.05;90.52;102044.31;5022095;28;19929;-57
2023/08/10 01:13:30;;;;;;;;;;;;;;;14.08;90.64;102052.28;5023318;28;20127;-57
2023/08/10 01:15:57;;;;;;;;;;;;;;;14.09;90.94;102046.19;5023361;28;19905;-57
2023/08/10 01:18:26;;;;;;;;;;;;;;;14.12;90.85;102047.09;5023284;28;20136;-58
2023/08/10 01:20:53;;;;;;;;;;;;;;;14.18;90.17;102047.28;5022641;28;19910;-57
2023/08/10 01:23:34;;;;;;;;;;;;;;;14.21;90.17;102050.00;5021558;28;19925;-58
2023/08/10 01:25:59;;;;;;;;;;;;;;;14.23;90.83;102048.31;5017961;28;20027;-58
2023/08/10 01:28:26;;;;;;;;;;;;;;;14.23;90.82;102049.19;5015419;28;19932;-58
2023/08/10 01:30:52;;;;;;;;;;;;;;;14.26;90.83;102053.63;5021769;28;20139;-58
2023/08/10 01:33:18;;;;;;;;;;;;;;;14.26;90.80;102051.00;5022543;28;19917;-57
2023/08/10 01:35:44;;;;;;;;;;;;;;;14.24;90.63;102050.09;5022174;28;19917;-58
2023/08/10 01:38:09;;;;;;;;;;;;;;;14.23;90.53;102053.53;5021477;28;19914;-58
2023/08/10 01:40:34;;;;;;;;;;;;;;;14.20;91.04;102048.22;5022113;28;19936;-58
2023/08/10 01:43:00;;;;;;;;;;;;;;;14.20;91.10;102050.84;5022416;28;19968;-57
2023/08/10 01:45:25;;;;;;;;;;;;;;;14.21;90.84;102052.63;5020670;28;19943;-58
2023/08/10 01:47:55;;;;;;;;;;;;;;;14.21;90.59;102056.13;5021660;28;20382;-57
2023/08/10 01:50:22;;;;;;;;;;;;;;;14.15;90.19;102050.72;5022559;28;19980;-57
2023/08/10 01:52:50;;;;;;;;;;;;;;;14.02;90.60;102046.84;5019143;28;19925;-57
2023/08/10 01:55:16;;;;;;;;;;;;;;;13.96;91.13;102051.94;5023102;28;19912;-58
2023/08/10 01:57:41;;;;;;;;;;;;;;;13.92;91.40;102050.06;5023567;28;19911;-58
2023/08/10 02:00:07;;;;;;;;;;;;;;;13.90;91.57;102050.03;5022415;28;19906;-58
2023/08/10 02:02:32;;;;;;;;;;;;;;;13.91;91.81;102051.78;5022781;28;19912;-58
2023/08/10 02:04:58;;;;;;;;;;;;;;;13.93;91.32;102049.19;5021123;28;19977;-57
2023/08/10 02:07:24;;;;;;;;;;;;;;;13.95;91.17;102049.25;5024179;28;19931;-58
2023/08/10 02:09:49;;;;;;;;;;;;;;;13.95;91.32;102051.84;5022907;28;20170;-58
2023/08/10 02:12:14;;;;;;;;;;;;;;;13.94;91.28;102055.34;5022952;28;19911;-58
2023/08/10 02:14:39;;;;;;;;;;;;;;;13.92;91.29;102050.06;5022946;28;19929;-58
2023/08/10 02:17:05;;;;;;;;;;;;;;;13.89;91.13;102052.59;5022265;28;19910;-58
2023/08/10 02:19:30;;;;;;;;;;;;;;;13.88;91.31;102050.81;5022281;28;19956;-58
2023/08/10 02:21:55;;;;;;;;;;;;;;;13.80;90.75;102052.31;5023046;28;19972;-58
2023/08/10 02:24:20;;;;;;;;;;;;;;;13.71;90.94;102058.16;5022688;28;19973;-57
2023/08/10 02:26:46;;;;;;;;;;;;;;;13.63;91.44;102055.31;5022223;28;20199;-58
2023/08/10 02:29:11;;;;;;;;;;;;;;;13.56;91.57;102054.22;5002186;28;19921;-57
2023/08/10 02:31:36;;;;;;;;;;;;;;;13.48;92.15;102063.56;5020727;28;19913;-58
2023/08/10 02:34:03;;;;;;;;;;;;;;;13.43;92.21;102056.44;5020929;28;19913;-58
2023/08/10 02:36:28;;;;;;;;;;;;;;;13.37;92.36;102064.97;5010955;28;19909;-58
2023/08/10 02:38:53;;;;;;;;;;;;;;;13.33;92.65;102065.69;5022703;28;20161;-58
2023/08/10 02:41:19;;;;;;;;;;;;;;;13.34;92.64;102064.84;5022757;28;19917;-57
2023/08/10 02:43:44;;;;;;;;;;;;;;;13.33;92.84;102060.44;5024669;28;19916;-58
2023/08/10 02:46:09;;;;;;;;;;;;;;;13.34;92.62;102065.78;5025220;28;19933;-58
2023/08/10 02:48:34;;;;;;;;;;;;;;;13.35;92.43;102070.16;5024261;28;19910;-58
2023/08/10 02:50:59;;;;;;;;;;;;;;;13.33;92.12;102071.81;5026021;28;19912;-57
2023/08/10 02:53:25;;;;;;;;;;;;;;;13.22;92.63;102062.72;5024167;28;19953;-58
2023/08/10 02:55:50;;;;;;;;;;;;;;;13.08;92.89;102064.91;5024368;28;19910;-57
2023/08/10 02:58:15;;;;;;;;;;;;;;;13.03;94.17;102075.22;5024262;28;19988;-57
2023/08/10 03:00:41;;;;;;;;;;;;;;;12.97;94.21;102069.75;5024389;28;19981;-58
2023/08/10 03:03:06;;;;;;;;;;;;;;;12.95;94.29;102076.69;5024251;28;19984;-57
2023/08/10 03:05:31;;;;;;;;;;;;;;;12.95;94.65;102078.41;5024948;28;19917;-57
2023/08/10 03:07:57;;;;;;;;;;;;;;;12.98;94.39;102078.50;5025305;28;19973;-57
2023/08/10 03:10:22;;;;;;;;;;;;;;;13.02;94.58;102078.66;5023071;28;19909;-58
2023/08/10 03:12:47;;;;;;;;;;;;;;;13.05;94.47;102080.50;5024703;28;19925;-57
2023/08/10 03:15:12;;;;;;;;;;;;;;;13.07;94.35;102088.41;5023042;28;20067;-57
2023/08/10 03:17:39;;;;;;;;;;;;;;;13.08;93.81;102083.22;5023997;28;19909;-58
2023/08/10 03:20:12;;;;;;;;;;;;;;;13.08;93.90;102079.69;5025952;28;19964;-57
2023/08/10 03:22:37;;;;;;;;;;;;;;;13.10;93.84;102083.25;5023799;28;19909;-57
2023/08/10 03:25:02;;;;;;;;;;;;;;;13.11;93.79;102090.28;5024134;28;19909;-57
2023/08/10 03:27:28;;;;;;;;;;;;;;;13.12;93.90;102087.72;5022739;28;19910;-57
2023/08/10 03:29:53;;;;;;;;;;;;;;;13.13;93.51;102088.59;5023014;28;19909;-57
2023/08/10 03:32:18;;;;;;;;;;;;;;;13.14;93.50;102085.16;5023621;28;20071;-58
2023/08/10 03:34:43;;;;;;;;;;;;;;;13.17;93.37;102080.88;5023716;28;19909;-58
2023/08/10 03:37:08;;;;;;;;;;;;;;;13.14;93.30;102078.16;5025086;28;19906;-57
2023/08/10 03:39:33;;;;;;;;;;;;;;;13.13;93.27;102079.00;5023782;28;20036;-57
2023/08/10 03:41:59;;;;;;;;;;;;;;;13.03;93.55;102087.38;5022354;28;19925;-58
2023/08/10 03:44:24;;;;;;;;;;;;;;;12.97;94.04;102082.84;5020755;28;19920;-58
2023/08/10 03:46:53;;;;;;;;;;;;;;;12.95;94.68;102087.13;5023968;28;19928;-57
2023/08/10 03:49:19;;;;;;;;;;;;;;;12.97;94.39;102082.84;5023225;28;19909;-57
2023/08/10 03:51:44;;;;;;;;;;;;;;;12.91;94.49;102080.03;5007118;28;19909;-58
2023/08/10 03:54:10;;;;;;;;;;;;;;;12.80;94.36;102078.75;5024974;28;19956;-58
2023/08/10 03:56:37;;;;;;;;;;;;;;;12.75;94.93;102076.00;5025039;28;19910;-58
2023/08/10 03:59:03;;;;;;;;;;;;;;;12.75;95.28;102083.84;5023749;28;19916;-57
2023/08/10 04:01:29;;;;;;;;;;;;;;;12.76;95.53;102083.00;5024293;28;19905;-57
2023/08/10 04:03:54;;;;;;;;;;;;;;;12.73;95.19;102082.91;5024757;28;19985;-58
2023/08/10 04:06:19;;;;;;;;;;;;;;;12.71;95.46;102081.94;5024735;28;20097;-58
2023/08/10 04:08:44;;;;;;;;;;;;;;;12.65;95.51;102087.84;5023702;28;19968;-58
2023/08/10 04:11:09;;;;;;;;;;;;;;;12.61;96.24;102083.34;5023919;28;19909;-57
2023/08/10 04:13:35;;;;;;;;;;;;;;;12.60;96.19;102086.81;5024754;28;20106;-58
2023/08/10 04:16:00;;;;;;;;;;;;;;;12.60;96.48;102086.81;5024417;28;20055;-58
2023/08/10 04:18:25;;;;;;;;;;;;;;;12.61;96.48;102091.19;5023543;28;19905;-57
2023/08/10 04:20:51;;;;;;;;;;;;;;;12.64;96.51;102093.94;5024304;28;19940;-57
2023/08/10 04:23:16;;;;;;;;;;;;;;;12.67;96.23;102101.88;5022263;28;20063;-57
2023/08/10 04:25:41;;;;;;;;;;;;;;;12.69;95.50;102100.19;5022331;28;20082;-58
2023/08/10 04:28:07;;;;;;;;;;;;;;;12.69;95.34;102097.59;5022516;28;19909;-58
2023/08/10 04:30:32;;;;;;;;;;;;;;;12.66;95.30;102096.59;5023146;28;19916;-58
2023/08/10 04:32:57;;;;;;;;;;;;;;;12.62;95.51;102100.81;5023400;28;20124;-58
2023/08/10 04:35:23;;;;;;;;;;;;;;;12.58;95.90;102096.31;5022232;28;19975;-57
2023/08/10 04:37:53;;;;;;;;;;;;;;;12.58;96.18;102101.53;5022655;28;19915;-57
2023/08/10 04:40:18;;;;;;;;;;;;;;;12.60;96.17;102109.44;5022374;28;19951;-57
2023/08/10 04:42:44;;;;;;;;;;;;;;;12.60;96.18;102107.75;5023076;28;19968;-58
2023/08/10 04:45:09;;;;;;;;;;;;;;;12.63;96.44;102107.84;5022795;28;19925;-58
2023/08/10 04:47:35;;;;;;;;;;;;;;;12.64;96.42;102112.25;5022828;28;19951;-58
2023/08/10 04:50:00;;;;;;;;;;;;;;;12.63;96.42;102107.84;5021669;28;19921;-57
2023/08/10 04:52:25;;;;;;;;;;;;;;;12.64;96.27;102114.88;5023061;28;19905;-58
2023/08/10 04:54:50;;;;;;;;;;;;;;;12.67;96.15;102114.06;5022685;28;19937;-58
2023/08/10 04:57:16;;;;;;;;;;;;;;;12.68;96.23;102116.72;5005154;28;19948;-57
2023/08/10 04:59:41;;;;;;;;;;;;;;;12.67;96.23;102124.50;5022019;28;19916;-57
2023/08/10 05:02:06;;;;;;;;;;;;;;;12.62;96.26;102126.09;5021942;28;19909;-58
2023/08/10 05:04:31;;;;;;;;;;;;;;;12.60;96.44;102122.50;5022470;28;19925;-58
2023/08/10 05:06:56;;;;;;;;;;;;;;;12.60;96.49;102117.28;5022063;28;19968;-58
2023/08/10 05:09:22;;;;;;;;;;;;;;;12.61;96.58;102119.06;5020944;28;20147;-58
2023/08/10 05:11:47;;;;;;;;;;;;;;;12.62;96.49;102115.63;5021017;28;19917;-58
2023/08/10 05:14:13;;;;;;;;;;;;;;;12.61;96.53;102119.94;5020607;28;19924;-57
2023/08/10 05:16:38;;;;;;;;;;;;;;;12.61;96.45;102119.94;5021184;28;19910;-57
2023/08/10 05:19:03;;;;;;;;;;;;;;;12.60;95.98;102120.81;5022345;28;19910;-58
2023/08/10 05:21:28;;;;;;;;;;;;;;;12.52;96.58;102114.41;5022817;28;20126;-58
2023/08/10 05:23:53;;;;;;;;;;;;;;;12.43;97.30;102111.47;5019541;28;19925;-57
2023/08/10 05:26:19;;;;;;;;;;;;;;;12.43;97.92;102114.97;5020242;28;19909;-57
2023/08/10 05:28:44;;;;;;;;;;;;;;;12.47;98.25;102113.34;5022863;28;19909;-57
2023/08/10 05:31:11;;;;;;;;;;;;;;;12.52;98.64;102115.28;5022785;28;19984;-57
2023/08/10 05:33:36;;;;;;;;;;;;;;;12.59;98.46;102119.03;5021913;28;20154;-58
2023/08/10 05:36:01;;;;;;;;;;;;;;;12.65;98.66;102118.34;5020689;28;19956;-57
2023/08/10 05:38:26;;;;;;;;;;;;;;;12.70;98.58;102115.06;5022613;28;20067;-56
2023/08/10 05:40:52;;;;;;;;;;;;;;;12.75;98.76;102110.00;5021682;28;19975;-58
2023/08/10 05:43:17;;;;;;;;;;;;;;;12.83;99.08;102115.47;5021588;28;19905;-58
2023/08/10 05:45:42;;;;;;;;;;;;;;;12.89;98.52;102113.09;5022397;28;19917;-58
2023/08/10 05:48:11;;;;;;;;;;;;;;;12.92;98.72;102110.59;5021434;28;19909;-58
2023/08/10 05:50:36;;;;;;;;;;;;;;;12.97;99.59;102106.38;5013312;28;20134;-57
2023/08/10 05:53:02;;;;;;;;;;;;;;;13.02;98.71;102106.53;5004507;28;20036;-58
2023/08/10 05:55:27;;;;;;;;;;;;;;;13.04;99.11;102104.88;5023017;28;19929;-58
2023/08/10 05:57:52;;;;;;;;;;;;;;;13.07;99.20;102112.81;5022117;28;19917;-57
2023/08/10 06:00:17;;;;;;;;;;;;;;;13.10;98.07;102109.44;5021463;28;19913;-58
2023/08/10 06:02:44;;;;;;;;;;;;;;;13.13;98.81;102107.78;5022973;28;20055;-58
2023/08/10 06:05:10;;;;;;;;;;;;;;;13.17;98.35;102114.91;5023202;28;19941;-58
2023/08/10 06:07:36;;;;;;;;;;;;;;;13.21;98.39;102110.69;5005487;28;20155;-58
2023/08/10 06:10:01;;;;;;;;;;;;;;;13.26;99.60;102113.44;5023179;28;20047;-58
2023/08/10 06:12:27;;;;;;;;;;;;;;;13.29;99.21;102116.16;5024040;28;20139;-58
2023/08/10 06:14:52;;;;;;;;;;;;;;;13.35;99.54;102116.38;5026622;28;19905;-58
2023/08/10 06:17:17;;;;;;;;;;;;;;;13.41;100.00;102111.34;5024246;28;19936;-58
2023/08/10 06:19:50;;;;;;;;;;;;;;;13.51;100.00;102108.22;5026645;28;19909;-58
2023/08/10 06:22:15;;;;;;;;;;;;;;;13.64;100.00;102108.56;5032997;28;19936;-58
2023/08/10 06:24:40;;;;;;;;;;;;;;;13.74;100.00;102106.31;5026422;28;20158;-58
2023/08/10 06:27:06;;;;;;;;;;;;;;;13.86;100.00;102112.75;5024650;28;19917;-58
2023/08/10 06:29:31;;;;;;;;;;;;;;;13.93;100.00;102113.81;5025643;28;19921;-58
2023/08/10 06:31:56;;;;;;;;;;;;;;;14.00;100.00;102119.28;5023915;28;19906;-58
2023/08/10 06:34:22;;;;;;;;;;;;;;;14.04;100.00;102110.69;5025350;28;20143;-58
2023/08/10 06:36:47;;;;;;;;;;;;;;;14.07;100.00;102113.38;5025822;28;19913;-58
2023/08/10 06:39:12;;;;;;;;;;;;;;;14.12;100.00;102108.31;5025288;28;19916;-58
2023/08/10 06:41:37;;;;;;;;;;;;;;;14.18;100.00;102104.94;5023273;28;19979;-58
2023/08/10 06:44:03;;;;;;;;;;;;;;;14.25;100.00;102099.03;5023015;28;20263;-58
2023/08/10 06:46:28;;;;;;;;;;;;;;;14.35;100.00;102103.72;5023878;28;20281;-58
2023/08/10 06:48:55;;;;;;;;;;;;;;;14.43;100.00;102106.56;5024260;28;19917;-58
2023/08/10 06:51:20;;;;;;;;;;;;;;;14.55;100.00;102098.13;5022948;28;20054;-58
2023/08/10 06:53:46;;;;;;;;;;;;;;;14.66;100.00;102098.47;5025261;28;19909;-58
2023/08/10 06:56:11;;;;;;;;;;;;;;;14.75;100.00;102103.94;5021580;28;19968;-58
2023/08/10 06:58:36;;;;;;;;;;;;;;;14.82;100.00;102099.75;5022433;28;19956;-58
2023/08/10 07:01:01;;;;;;;;;;;;;;;14.88;100.00;102094.66;5022922;28;19976;-58
2023/08/10 07:03:27;;;;;;;;;;;;;;;14.92;100.00;102096.53;5021785;28;19917;-58
2023/08/10 07:05:52;;;;;;;;;;;;;;;15.00;100.00;102092.34;5022812;28;19929;-58
2023/08/10 07:08:17;;;;;;;;;;;;;;;15.09;100.00;102092.59;5003005;28;19932;-58
2023/08/10 07:10:42;;;;;;;;;;;;;;;15.22;100.00;102092.88;5021100;28;20147;-58
2023/08/10 07:13:08;;;;;;;;;;;;;;;15.34;99.80;102095.81;5023404;28;19947;-58
2023/08/10 07:15:33;;;;;;;;;;;;;;;15.47;100.00;102094.38;5024440;28;19909;-58
2023/08/10 07:17:58;;;;;;;;;;;;;;;15.59;100.00;102088.50;5023803;28;19912;-58
2023/08/10 07:20:23;;;;;;;;;;;;;;;15.70;98.86;102087.03;5021052;28;19916;-58
2023/08/10 07:22:49;;;;;;;;;;;;;;;15.78;98.76;102084.56;5023124;28;20070;-59
2023/08/10 07:25:16;;;;;;;;;;;;;;;15.88;98.48;102089.19;5022985;28;19909;-59
2023/08/10 07:27:42;;;;;;;;;;;;;;;15.92;97.46;102092.78;5021356;28;19988;-59
2023/08/10 07:30:09;;;;;;;;;;;;;;;15.93;97.51;102099.78;5020834;28;20036;-58
2023/08/10 07:32:34;;;;;;;;;;;;;;;15.99;96.69;102099.94;5014962;28;19909;-59
2023/08/10 07:34:59;;;;;;;;;;;;;;;16.07;96.74;102095.72;5017123;28;19917;-58
2023/08/10 07:37:24;;;;;;;;;;;;;;;16.15;95.16;102099.41;5019525;28;19980;-59
2023/08/10 07:39:50;;;;;;;;;;;;;;;16.24;94.93;102103.09;5015523;28;20056;-59
2023/08/10 07:42:15;;;;;;;;;;;;;;;16.29;93.57;102089.19;5016145;28;20109;-59
2023/08/10 07:44:40;;;;;;;;;;;;;;;16.38;93.33;102099.00;5013172;28;19992;-58
2023/08/10 07:47:05;;;;;;;;;;;;;;;16.47;92.53;102099.16;5012942;28;19921;-58
2023/08/10 07:49:31;;;;;;;;;;;;;;;16.51;87.49;102100.09;5013989;28;19909;-59
2023/08/10 07:51:57;;;;;;;;;;;;;;;16.61;89.69;102096.81;5015739;28;19919;-59
2023/08/10 07:54:22;;;;;;;;;;;;;;;16.71;87.58;102097.84;5002580;28;19933;-58
2023/08/10 07:56:47;;;;;;;;;;;;;;;16.79;86.35;102106.78;5022789;28;19933;-59
2023/08/10 07:59:12;;;;;;;;;;;;;;;16.84;85.90;102105.13;5023859;28;19906;-59
2023/08/10 08:01:38;;;;;;;;;;;;;;;16.89;81.88;102104.31;5021308;28;19909;-59
2023/08/10 08:04:03;;;;;;;;;;;;;;;16.96;79.85;102100.94;5024598;28;19913;-59
2023/08/10 08:06:29;;;;;;;;;;;;;;;17.04;78.79;102104.59;5024514;28;19905;-59
2023/08/10 08:08:54;;;;;;;;;;;;;;;17.15;78.08;102104.81;5024148;28;19917;-58
2023/08/10 08:11:19;;;;;;;;;;;;;;;17.25;72.92;102111.09;5023540;28;20174;-59
2023/08/10 08:13:44;;;;;;;;;;;;;;;17.36;77.41;102102.47;5022929;28;19921;-59
2023/08/10 08:16:10;;;;;;;;;;;;;;;17.50;78.26;102097.44;5024310;28;19940;-59
2023/08/10 08:18:43;;;;;;;;;;;;;;;17.60;77.50;102098.47;5022818;28;19921;-59
2023/08/10 08:21:09;;;;;;;;;;;;;;;17.69;78.18;102098.59;5021998;28;20007;-58
2023/08/10 08:23:34;;;;;;;;;;;;;;;17.86;77.75;102087.41;5023778;28;19976;-59
2023/08/10 08:25:59;;;;;;;;;;;;;;;18.12;74.82;102095.69;5022060;28;19979;-59
2023/08/10 08:28:24;;;;;;;;;;;;;;;18.24;75.78;102092.31;5005368;28;20104;-59
2023/08/10 08:30:50;;;;;;;;;;;;;;;18.37;76.24;102101.25;5024140;28;20202;-58
2023/08/10 08:33:16;;;;;;;;;;;;;;;18.52;74.68;102090.84;5021972;28;20163;-58
2023/08/10 08:35:43;;;;;;;;;;;;;;;18.62;72.80;102101.53;5022084;28;19931;-59
2023/08/10 08:38:09;;;;;;;;;;;;;;;18.66;76.38;102103.31;5020404;28;19916;-58
2023/08/10 08:40:34;;;;;;;;;;;;;;;18.73;74.10;102108.66;5023286;28;19913;-58
2023/08/10 08:43:02;;;;;;;;;;;;;;;18.89;74.50;102106.22;5021885;28;19948;-58
2023/08/10 08:45:27;;;;;;;;;;;;;;;19.02;67.21;102107.22;5005765;28;19925;-58
2023/08/10 08:47:54;;;;;;;;;;;;;;;19.13;72.64;102102.88;5022817;28;19948;-59
2023/08/10 08:50:19;;;;;;;;;;;;;;;19.24;64.01;102106.50;5022298;28;19947;-59
2023/08/10 08:52:45;;;;;;;;;;;;;;;19.39;66.67;102096.94;5020819;28;19945;-58
2023/08/10 08:55:14;;;;;;;;;;;;;;;19.43;69.31;102102.25;5020731;28;20181;-59
2023/08/10 08:57:39;;;;;;;;;;;;;;;19.65;69.08;102102.38;5020923;28;19925;-58
2023/08/10 09:00:06;;;;;;;;;;;;;;;19.89;71.19;102099.03;5021030;28;20170;-59
2023/08/10 09:02:31;;;;;;;;;;;;;;;20.01;70.56;102094.69;5017722;28;19917;-59
2023/08/10 09:04:59;;;;;;;;;;;;;;;20.12;67.82;102100.91;5018579;28;19921;-59
2023/08/10 09:07:25;;;;;;;;;;;;;;;20.09;70.15;102092.97;5017136;28;20063;-59
2023/08/10 09:09:50;;;;;;;;;;;;;;;20.06;71.31;102083.25;5019094;28;19936;-59
2023/08/10 09:12:32;;;;;;;;;;;;;;;20.06;68.78;102079.69;5021174;28;19910;-59
2023/08/10 09:15:06;;;;;;;;;;;;;;;19.97;69.88;102078.81;5022430;28;20102;-59
2023/08/10 09:17:33;;;;;;;;;;;;;;;19.91;70.24;102081.41;5021914;28;19948;-58
2023/08/10 09:19:58;;;;;;;;;;;;;;;19.90;70.47;102077.00;5022185;28;20212;-58
2023/08/10 09:22:26;;;;;;;;;;;;;;;19.89;69.71;102080.53;5021179;28;20212;-59
2023/08/10 09:24:51;;;;;;;;;;;;;;;19.93;70.89;102074.38;5021802;28;19909;-59
2023/08/10 09:27:17;;;;;;;;;;;;;;;19.98;69.93;102075.25;5022301;28;19968;-58
2023/08/10 09:29:42;;;;;;;;;;;;;;;20.02;70.42;102080.59;5005682;28;20136;-59
2023/08/10 09:32:07;;;;;;;;;;;;;;;20.08;68.89;102078.81;5021592;28;20145;-58
2023/08/10 09:34:32;;;;;;;;;;;;;;;20.15;68.61;102082.41;5021462;28;19936;-58
2023/08/10 09:36:58;;;;;;;;;;;;;;;20.23;70.34;102078.00;5023348;28;19922;-59
2023/08/10 09:39:23;;;;;;;;;;;;;;;20.30;68.75;102073.63;5023184;28;20312;-59
2023/08/10 09:41:50;;;;;;;;;;;;;;;20.33;69.31;102079.81;5022015;28;20181;-59
2023/08/10 09:44:15;;;;;;;;;;;;;;;20.39;68.79;102078.94;5021565;28;19909;-58
2023/08/10 09:46:40;;;;;;;;;;;;;;;20.39;68.41;102078.94;5023270;28;19914;-59
2023/08/10 09:49:06;;;;;;;;;;;;;;;20.33;64.50;102085.09;5026872;28;19917;-59
2023/08/10 09:51:36;;;;;;;;;;;;;;;20.29;66.31;102085.97;5010754;28;19909;-58
2023/08/10 09:54:02;;;;;;;;;;;;;;;20.29;68.64;102083.31;5027148;28;19951;-59
2023/08/10 09:56:27;;;;;;;;;;;;;;;20.33;69.20;102082.47;5026993;28;19918;-58
2023/08/10 09:58:52;;;;;;;;;;;;;;;20.38;68.26;102079.81;5026539;28;19917;-59
2023/08/10 10:01:17;;;;;;;;;;;;;;;20.47;69.72;102074.53;5027255;28;19925;-58
2023/08/10 10:03:43;;;;;;;;;;;;;;;20.53;68.07;102081.59;5027013;28;20131;-58
2023/08/10 10:06:09;;;;;;;;;;;;;;;20.52;68.23;102084.25;5025900;28;19909;-58
2023/08/10 10:08:36;;;;;;;;;;;;;;;20.55;68.25;102086.91;5026905;28;19905;-57
2023/08/10 10:11:05;;;;;;;;;;;;;;;20.60;67.92;102083.38;5026791;28;19921;-57
2023/08/10 10:13:31;;;;;;;;;;;;;;;20.55;67.60;102081.59;5024437;28;19925;-57
2023/08/10 10:15:57;;;;;;;;;;;;;;;20.46;66.50;102087.78;5006391;28;19932;-58
2023/08/10 10:18:23;;;;;;;;;;;;;;;20.48;68.25;102086.91;5026153;28;20203;-57
2023/08/10 10:20:49;;;;;;;;;;;;;;;20.58;66.74;102093.09;5025072;28;19910;-59
2023/08/10 10:23:18;;;;;;;;;;;;;;;20.64;65.04;102093.13;5026347;28;19913;-58
2023/08/10 10:26:00;;;;;;;;;;;;;;;20.67;66.10;102100.22;5026248;28;19905;-57
2023/08/10 10:28:26;;;;;;;;;;;;;;;20.62;66.99;102101.94;5019671;28;19955;-57
2023/08/10 10:30:53;;;;;;;;;;;;;;;20.61;67.00;102103.69;5024954;28;19909;-58
2023/08/10 10:33:19;;;;;;;;;;;;;;;20.66;65.82;102099.31;5026232;28;19913;-58
2023/08/10 10:36:03;;;;;;;;;;;;;;;20.72;67.34;102097.56;5025855;28;20051;-57
2023/08/10 10:38:29;;;;;;;;;;;;;;;20.79;67.96;102092.28;5022437;28;19968;-56
2023/08/10 10:40:54;;;;;;;;;;;;;;;20.86;66.62;102082.56;5025052;28;19916;-57
2023/08/10 10:43:20;;;;;;;;;;;;;;;20.92;66.08;102087.00;5007462;28;19944;-58
2023/08/10 10:45:45;;;;;;;;;;;;;;;20.96;66.63;102076.41;5025988;28;19928;-58
2023/08/10 10:48:14;;;;;;;;;;;;;;;20.96;66.58;102079.03;5025973;28;20135;-58
2023/08/10 10:50:40;;;;;;;;;;;;;;;20.96;67.34;102084.34;5026562;28;19916;-58
2023/08/10 10:53:13;;;;;;;;;;;;;;;21.05;66.75;102086.09;5019844;28;19945;-58
2023/08/10 10:55:42;;;;;;;;;;;;;;;21.20;66.43;102082.56;5024165;28;20210;-58
2023/08/10 10:58:08;;;;;;;;;;;;;;;21.28;65.40;102075.50;5024390;28;19911;-57
2023/08/10 11:00:36;;;;;;;;;;;;;;;21.35;65.45;102065.78;5021901;28;19964;-58
2023/08/10 11:03:03;;;;;;;;;;;;;;;21.44;66.15;102070.19;5026110;28;19917;-58
2023/08/10 11:05:28;;;;;;;;;;;;;;;21.53;66.30;102071.03;5025509;28;19905;-58
2023/08/10 11:07:55;;;;;;;;;;;;;;;21.63;66.88;102071.03;5025739;28;20162;-57
2023/08/10 11:10:23;;;;;;;;;;;;;;;21.75;67.62;102070.13;5018159;28;20127;-58
2023/08/10 11:12:49;;;;;;;;;;;;;;;21.91;68.45;102068.28;5014802;28;19910;-58
2023/08/10 11:15:16;;;;;;;;;;;;;;;22.12;66.03;102067.31;5018937;28;19905;-58
2023/08/10 11:17:42;;;;;;;;;;;;;;;22.23;65.60;102066.38;5019991;28;19920;-58
2023/08/10 11:20:10;;;;;;;;;;;;;;;22.35;67.87;102065.44;5018430;28;19968;-58
2023/08/10 11:22:38;;;;;;;;;;;;;;;22.66;64.82;102061.69;5024919;28;20158;-59
2023/08/10 11:25:10;;;;;;;;;;;;;;;22.82;65.46;102060.69;5023168;28;19913;-58
2023/08/10 11:27:37;;;;;;;;;;;;;;;22.96;59.72;102065.03;5012683;28;19916;-57
2023/08/10 11:30:04;;;;;;;;;;;;;;;22.86;60.50;102056.25;5024813;28;20032;-58
2023/08/10 11:32:29;;;;;;;;;;;;;;;22.87;60.78;102055.31;5024670;28;19948;-57
2023/08/10 11:34:57;;;;;;;;;;;;;;;22.98;59.86;102053.47;5024788;28;20362;-58
2023/08/10 11:37:29;;;;;;;;;;;;;;;23.14;62.43;102048.91;5024707;28;20064;-58
2023/08/10 11:39:54;;;;;;;;;;;;;;;23.44;61.38;102041.53;5023655;28;19905;-58
2023/08/10 11:42:19;;;;;;;;;;;;;;;23.71;63.02;102044.75;5023579;28;19910;-58
2023/08/10 11:44:50;;;;;;;;;;;;;;;23.88;61.13;102048.16;5013073;28;19917;-58
2023/08/10 11:47:17;;;;;;;;;;;;;;;24.13;60.59;102050.47;5015233;28;19909;-58
2023/08/10 11:49:42;;;;;;;;;;;;;;;24.38;62.54;102059.00;5022526;28;20058;-58
2023/08/10 11:52:14;;;;;;;;;;;;;;;24.62;60.64;102054.22;5021357;28;20159;-59
2023/08/10 11:54:39;;;;;;;;;;;;;;;24.89;59.18;102044.00;5024938;28;20098;-58
2023/08/10 11:57:08;;;;;;;;;;;;;;;25.06;56.45;102036.59;5017608;28;19909;-58
2023/08/10 11:59:33;;;;;;;;;;;;;;;25.12;58.56;102031.13;5014122;28;20048;-58
2023/08/10 12:01:58;;;;;;;;;;;;;;;25.28;60.58;102039.72;5022810;28;19987;-59
2023/08/10 12:04:28;;;;;;;;;;;;;;;25.36;59.43;102036.06;5024765;28;19909;-58
2023/08/10 12:06:53;;;;;;;;;;;;;;;25.54;60.08;102045.53;5024003;28;20095;-58
2023/08/10 12:09:19;;;;;;;;;;;;;;;25.60;57.85;102042.72;5024862;28;19940;-58
2023/08/10 12:11:48;;;;;;;;;;;;;;;25.72;59.55;102042.47;5024789;28;19914;-58
2023/08/10 12:14:13;;;;;;;;;;;;;;;25.81;58.56;102036.94;5024371;28;19905;-58
2023/08/10 12:16:38;;;;;;;;;;;;;;;25.84;58.27;102036.88;5023244;28;19937;-59
2023/08/10 12:19:04;;;;;;;;;;;;;;;25.78;59.00;102037.00;5024832;28;19909;-58
2023/08/10 12:21:29;;;;;;;;;;;;;;;25.88;59.79;102037.66;5024384;28;19909;-58
2023/08/10 12:23:55;;;;;;;;;;;;;;;25.97;58.49;102034.81;5024796;28;20113;-59
2023/08/10 12:26:20;;;;;;;;;;;;;;;25.92;56.18;102038.50;5024837;28;19905;-58
2023/08/10 12:28:46;;;;;;;;;;;;;;;25.91;57.81;102039.41;5024402;28;19905;-59
2023/08/10 12:31:11;;;;;;;;;;;;;;;25.92;58.95;102038.50;5023171;28;19937;-59